sensor_id;sensor_type;location;lat;lon;timestamp;P1;durP1;ratioP1;P2;durP2;ratioP2
7029;SDS011;3556;53.500;10.176;2023-04-24T00:01:15;7.63;;;6.90;;
7029;SDS011;3556;53.500;10.176;2023-04-24T00:03:42;6.90;;;6.50;;
7029;SDS011;3556;53.500;10.176;2023-04-24T00:06:07;6.60;;;6.23;;
7029;SDS011;3556;53.500;10.176;2023-04-24T00:08:34;8.43;;;6.80;;
7029;SDS011;3556;53.500;10.176;2023-04-24T00:11:01;6.63;;;6.33;;
7029;SDS011;3556;53.500;10.176;2023-04-24T00:13:26;7.10;;;6.70;;
7029;SDS011;3556;53.500;10.176;2023-04-24T00:15:53;7.40;;;6.80;;
7029;SDS011;3556;53.500;10.176;2023-04-24T00:18:22;7.90;;;7.10;;
7029;SDS011;3556;53.500;10.176;2023-04-24T00:20:47;7.63;;;7.23;;
7029;SDS011;3556;53.500;10.176;2023-04-24T00:23:13;8.23;;;7.53;;
7029;SDS011;3556;53.500;10.176;2023-04-24T00:25:39;7.60;;;7.30;;
7029;SDS011;3556;53.500;10.176;2023-04-24T00:28:05;7.43;;;7.00;;
7029;SDS011;3556;53.500;10.176;2023-04-24T00:30:30;7.60;;;6.90;;
7029;SDS011;3556;53.500;10.176;2023-04-24T00:32:56;7.63;;;7.13;;
7029;SDS011;3556;53.500;10.176;2023-04-24T00:35:22;7.67;;;7.00;;
7029;SDS011;3556;53.500;10.176;2023-04-24T00:37:48;7.63;;;7.13;;
7029;SDS011;3556;53.500;10.176;2023-04-24T00:40:14;11.30;;;6.60;;
7029;SDS011;3556;53.500;10.176;2023-04-24T00:42:40;6.40;;;6.10;;
7029;SDS011;3556;53.500;10.176;2023-04-24T00:45:06;7.57;;;7.13;;
7029;SDS011;3556;53.500;10.176;2023-04-24T00:47:33;8.43;;;7.73;;
7029;SDS011;3556;53.500;10.176;2023-04-24T00:50:01;8.77;;;8.00;;
7029;SDS011;3556;53.500;10.176;2023-04-24T00:52:31;8.60;;;8.00;;
7029;SDS011;3556;53.500;10.176;2023-04-24T00:54:57;7.60;;;7.27;;
7029;SDS011;3556;53.500;10.176;2023-04-24T00:57:23;7.93;;;7.33;;
7029;SDS011;3556;53.500;10.176;2023-04-24T00:59:50;8.43;;;7.80;;
7029;SDS011;3556;53.500;10.176;2023-04-24T01:02:18;7.63;;;7.20;;
7029;SDS011;3556;53.500;10.176;2023-04-24T01:04:44;8.67;;;7.83;;
7029;SDS011;3556;53.500;10.176;2023-04-24T01:07:10;7.50;;;7.07;;
7029;SDS011;3556;53.500;10.176;2023-04-24T01:09:42;7.77;;;7.20;;
7029;SDS011;3556;53.500;10.176;2023-04-24T01:12:12;7.30;;;6.90;;
7029;SDS011;3556;53.500;10.176;2023-04-24T01:14:37;7.70;;;7.10;;
7029;SDS011;3556;53.500;10.176;2023-04-24T01:17:03;6.87;;;6.50;;
7029;SDS011;3556;53.500;10.176;2023-04-24T01:19:29;6.97;;;6.50;;
7029;SDS011;3556;53.500;10.176;2023-04-24T01:21:54;6.97;;;6.67;;
7029;SDS011;3556;53.500;10.176;2023-04-24T01:24:23;7.50;;;6.93;;
7029;SDS011;3556;53.500;10.176;2023-04-24T01:26:49;6.67;;;6.47;;
7029;SDS011;3556;53.500;10.176;2023-04-24T01:29:15;5.80;;;5.60;;
7029;SDS011;3556;53.500;10.176;2023-04-24T01:31:41;6.53;;;5.90;;
7029;SDS011;3556;53.500;10.176;2023-04-24T01:34:06;5.63;;;5.40;;
7029;SDS011;3556;53.500;10.176;2023-04-24T01:36:33;6.60;;;6.00;;
7029;SDS011;3556;53.500;10.176;2023-04-24T01:39:01;7.10;;;5.17;;
7029;SDS011;3556;53.500;10.176;2023-04-24T01:41:27;5.80;;;5.60;;
7029;SDS011;3556;53.500;10.176;2023-04-24T01:43:54;6.57;;;6.03;;
7029;SDS011;3556;53.500;10.176;2023-04-24T01:46:20;6.50;;;6.00;;
7029;SDS011;3556;53.500;10.176;2023-04-24T01:48:45;5.17;;;4.97;;
7029;SDS011;3556;53.500;10.176;2023-04-24T01:51:11;8.97;;;5.30;;
7029;SDS011;3556;53.500;10.176;2023-04-24T01:53:37;5.83;;;5.37;;
7029;SDS011;3556;53.500;10.176;2023-04-24T01:56:02;4.87;;;4.57;;
7029;SDS011;3556;53.500;10.176;2023-04-24T01:58:28;5.03;;;4.83;;
7029;SDS011;3556;53.500;10.176;2023-04-24T02:00:56;4.90;;;4.80;;
7029;SDS011;3556;53.500;10.176;2023-04-24T02:03:23;6.00;;;5.60;;
7029;SDS011;3556;53.500;10.176;2023-04-24T02:05:50;6.20;;;6.00;;
7029;SDS011;3556;53.500;10.176;2023-04-24T02:08:16;4.40;;;4.20;;
7029;SDS011;3556;53.500;10.176;2023-04-24T02:10:41;4.97;;;4.70;;
7029;SDS011;3556;53.500;10.176;2023-04-24T02:13:07;5.60;;;5.30;;
7029;SDS011;3556;53.500;10.176;2023-04-24T02:15:33;4.87;;;4.67;;
7029;SDS011;3556;53.500;10.176;2023-04-24T02:17:58;5.40;;;5.20;;
7029;SDS011;3556;53.500;10.176;2023-04-24T02:20:24;5.30;;;5.20;;
7029;SDS011;3556;53.500;10.176;2023-04-24T02:22:50;5.37;;;4.97;;
7029;SDS011;3556;53.500;10.176;2023-04-24T02:25:15;4.93;;;4.73;;
7029;SDS011;3556;53.500;10.176;2023-04-24T02:27:41;4.33;;;4.13;;
7029;SDS011;3556;53.500;10.176;2023-04-24T02:30:07;4.80;;;4.60;;
7029;SDS011;3556;53.500;10.176;2023-04-24T02:32:33;4.40;;;4.30;;
7029;SDS011;3556;53.500;10.176;2023-04-24T02:34:59;4.43;;;4.23;;
7029;SDS011;3556;53.500;10.176;2023-04-24T02:37:24;4.00;;;3.60;;
7029;SDS011;3556;53.500;10.176;2023-04-24T02:39:50;3.17;;;3.07;;
7029;SDS011;3556;53.500;10.176;2023-04-24T02:42:15;3.30;;;3.10;;
7029;SDS011;3556;53.500;10.176;2023-04-24T02:44:41;5.63;;;3.10;;
7029;SDS011;3556;53.500;10.176;2023-04-24T02:47:07;3.30;;;3.10;;
7029;SDS011;3556;53.500;10.176;2023-04-24T02:49:33;4.13;;;3.30;;
7029;SDS011;3556;53.500;10.176;2023-04-24T02:51:59;3.40;;;3.00;;
7029;SDS011;3556;53.500;10.176;2023-04-24T02:54:24;3.07;;;2.97;;
7029;SDS011;3556;53.500;10.176;2023-04-24T02:56:50;2.70;;;2.60;;
7029;SDS011;3556;53.500;10.176;2023-04-24T02:59:15;2.60;;;2.50;;
7029;SDS011;3556;53.500;10.176;2023-04-24T03:01:41;2.27;;;2.17;;
7029;SDS011;3556;53.500;10.176;2023-04-24T03:04:07;2.43;;;2.33;;
7029;SDS011;3556;53.500;10.176;2023-04-24T03:06:32;2.40;;;2.20;;
7029;SDS011;3556;53.500;10.176;2023-04-24T03:09:00;2.40;;;2.30;;
7029;SDS011;3556;53.500;10.176;2023-04-24T03:11:26;2.30;;;2.20;;
7029;SDS011;3556;53.500;10.176;2023-04-24T03:13:51;2.27;;;2.17;;
7029;SDS011;3556;53.500;10.176;2023-04-24T03:16:17;2.63;;;2.53;;
7029;SDS011;3556;53.500;10.176;2023-04-24T03:18:42;2.50;;;2.40;;
7029;SDS011;3556;53.500;10.176;2023-04-24T03:21:08;1.97;;;1.97;;
7029;SDS011;3556;53.500;10.176;2023-04-24T03:23:34;2.40;;;2.30;;
7029;SDS011;3556;53.500;10.176;2023-04-24T03:25:59;3.37;;;3.27;;
7029;SDS011;3556;53.500;10.176;2023-04-24T03:28:25;4.00;;;3.80;;
7029;SDS011;3556;53.500;10.176;2023-04-24T03:30:51;3.27;;;3.13;;
7029;SDS011;3556;53.500;10.176;2023-04-24T03:33:17;2.90;;;2.80;;
7029;SDS011;3556;53.500;10.176;2023-04-24T03:35:42;3.13;;;3.03;;
7029;SDS011;3556;53.500;10.176;2023-04-24T03:38:08;2.70;;;2.60;;
7029;SDS011;3556;53.500;10.176;2023-04-24T03:40:33;2.20;;;2.10;;
7029;SDS011;3556;53.500;10.176;2023-04-24T03:42:59;2.60;;;2.50;;
7029;SDS011;3556;53.500;10.176;2023-04-24T03:45:25;1.90;;;1.90;;
7029;SDS011;3556;53.500;10.176;2023-04-24T03:47:50;2.50;;;2.30;;
7029;SDS011;3556;53.500;10.176;2023-04-24T03:50:16;2.20;;;2.10;;
7029;SDS011;3556;53.500;10.176;2023-04-24T03:52:42;2.20;;;2.10;;
7029;SDS011;3556;53.500;10.176;2023-04-24T03:55:07;2.40;;;2.30;;
7029;SDS011;3556;53.500;10.176;2023-04-24T03:57:33;2.20;;;2.10;;
7029;SDS011;3556;53.500;10.176;2023-04-24T03:59:59;2.40;;;2.30;;
7029;SDS011;3556;53.500;10.176;2023-04-24T04:02:24;2.47;;;2.37;;
7029;SDS011;3556;53.500;10.176;2023-04-24T04:04:50;2.17;;;2.07;;
7029;SDS011;3556;53.500;10.176;2023-04-24T04:07:16;2.53;;;2.43;;
7029;SDS011;3556;53.500;10.176;2023-04-24T04:09:42;2.20;;;2.10;;
7029;SDS011;3556;53.500;10.176;2023-04-24T04:12:07;2.43;;;2.33;;
7029;SDS011;3556;53.500;10.176;2023-04-24T04:14:33;2.40;;;2.30;;
7029;SDS011;3556;53.500;10.176;2023-04-24T04:16:59;2.33;;;2.23;;
7029;SDS011;3556;53.500;10.176;2023-04-24T04:19:25;2.77;;;2.10;;
7029;SDS011;3556;53.500;10.176;2023-04-24T04:21:50;2.40;;;2.30;;
7029;SDS011;3556;53.500;10.176;2023-04-24T04:24:18;2.33;;;2.23;;
7029;SDS011;3556;53.500;10.176;2023-04-24T04:26:45;2.30;;;2.10;;
7029;SDS011;3556;53.500;10.176;2023-04-24T04:29:12;2.13;;;2.13;;
7029;SDS011;3556;53.500;10.176;2023-04-24T04:31:38;2.10;;;2.07;;
7029;SDS011;3556;53.500;10.176;2023-04-24T04:34:04;1.90;;;1.90;;
7029;SDS011;3556;53.500;10.176;2023-04-24T04:36:29;2.10;;;2.00;;
7029;SDS011;3556;53.500;10.176;2023-04-24T04:38:55;1.70;;;1.70;;
7029;SDS011;3556;53.500;10.176;2023-04-24T04:41:21;2.00;;;1.90;;
7029;SDS011;3556;53.500;10.176;2023-04-24T04:43:47;1.97;;;1.87;;
7029;SDS011;3556;53.500;10.176;2023-04-24T04:46:13;2.00;;;1.90;;
7029;SDS011;3556;53.500;10.176;2023-04-24T04:48:38;2.23;;;2.13;;
7029;SDS011;3556;53.500;10.176;2023-04-24T04:51:05;2.17;;;2.07;;
7029;SDS011;3556;53.500;10.176;2023-04-24T04:53:31;1.87;;;1.87;;
7029;SDS011;3556;53.500;10.176;2023-04-24T04:55:57;1.70;;;1.60;;
7029;SDS011;3556;53.500;10.176;2023-04-24T04:58:23;3.90;;;2.00;;
7029;SDS011;3556;53.500;10.176;2023-04-24T05:00:48;2.60;;;2.10;;
7029;SDS011;3556;53.500;10.176;2023-04-24T05:03:14;1.80;;;1.70;;
7029;SDS011;3556;53.500;10.176;2023-04-24T05:05:40;1.60;;;1.60;;
7029;SDS011;3556;53.500;10.176;2023-04-24T05:08:08;1.73;;;1.73;;
7029;SDS011;3556;53.500;10.176;2023-04-24T05:10:34;2.00;;;1.90;;
7029;SDS011;3556;53.500;10.176;2023-04-24T05:13:01;2.20;;;2.10;;
7029;SDS011;3556;53.500;10.176;2023-04-24T05:15:28;1.97;;;1.50;;
7029;SDS011;3556;53.500;10.176;2023-04-24T05:17:54;2.00;;;1.90;;
7029;SDS011;3556;53.500;10.176;2023-04-24T05:20:19;1.90;;;1.90;;
7029;SDS011;3556;53.500;10.176;2023-04-24T05:22:45;1.80;;;1.80;;
7029;SDS011;3556;53.500;10.176;2023-04-24T05:25:11;1.80;;;1.80;;
7029;SDS011;3556;53.500;10.176;2023-04-24T05:27:37;1.63;;;1.53;;
7029;SDS011;3556;53.500;10.176;2023-04-24T05:30:03;1.50;;;1.50;;
7029;SDS011;3556;53.500;10.176;2023-04-24T05:32:29;1.83;;;1.73;;
7029;SDS011;3556;53.500;10.176;2023-04-24T05:34:55;1.60;;;1.60;;
7029;SDS011;3556;53.500;10.176;2023-04-24T05:37:21;1.97;;;1.90;;
7029;SDS011;3556;53.500;10.176;2023-04-24T05:39:46;1.90;;;1.60;;
7029;SDS011;3556;53.500;10.176;2023-04-24T05:42:12;1.80;;;1.80;;
7029;SDS011;3556;53.500;10.176;2023-04-24T05:44:37;1.70;;;1.70;;
7029;SDS011;3556;53.500;10.176;2023-04-24T05:47:03;1.30;;;1.30;;
7029;SDS011;3556;53.500;10.176;2023-04-24T05:49:29;1.80;;;1.70;;
7029;SDS011;3556;53.500;10.176;2023-04-24T05:51:54;1.50;;;1.50;;
7029;SDS011;3556;53.500;10.176;2023-04-24T05:54:20;1.50;;;1.50;;
7029;SDS011;3556;53.500;10.176;2023-04-24T05:56:46;1.57;;;1.40;;
7029;SDS011;3556;53.500;10.176;2023-04-24T05:59:11;1.57;;;1.57;;
7029;SDS011;3556;53.500;10.176;2023-04-24T06:01:37;1.30;;;1.30;;
7029;SDS011;3556;53.500;10.176;2023-04-24T06:04:03;3.30;;;1.33;;
7029;SDS011;3556;53.500;10.176;2023-04-24T06:06:29;1.37;;;1.37;;
7029;SDS011;3556;53.500;10.176;2023-04-24T06:08:55;2.93;;;1.57;;
7029;SDS011;3556;53.500;10.176;2023-04-24T06:11:21;1.50;;;1.50;;
7029;SDS011;3556;53.500;10.176;2023-04-24T06:13:47;2.87;;;1.50;;
7029;SDS011;3556;53.500;10.176;2023-04-24T06:16:13;1.60;;;1.60;;
7029;SDS011;3556;53.500;10.176;2023-04-24T06:18:39;1.60;;;1.60;;
7029;SDS011;3556;53.500;10.176;2023-04-24T06:21:05;1.43;;;1.43;;
7029;SDS011;3556;53.500;10.176;2023-04-24T06:23:31;1.50;;;1.50;;
7029;SDS011;3556;53.500;10.176;2023-04-24T06:25:58;1.60;;;1.60;;
7029;SDS011;3556;53.500;10.176;2023-04-24T06:28:24;1.50;;;1.50;;
7029;SDS011;3556;53.500;10.176;2023-04-24T06:30:50;1.93;;;1.83;;
7029;SDS011;3556;53.500;10.176;2023-04-24T06:33:16;1.77;;;1.67;;
7029;SDS011;3556;53.500;10.176;2023-04-24T06:35:41;1.43;;;1.33;;
7029;SDS011;3556;53.500;10.176;2023-04-24T06:38:07;1.80;;;1.80;;
7029;SDS011;3556;53.500;10.176;2023-04-24T06:40:33;2.70;;;2.00;;
7029;SDS011;3556;53.500;10.176;2023-04-24T06:42:58;1.83;;;1.73;;
7029;SDS011;3556;53.500;10.176;2023-04-24T06:45:25;1.60;;;1.60;;
7029;SDS011;3556;53.500;10.176;2023-04-24T06:47:50;1.60;;;1.60;;
7029;SDS011;3556;53.500;10.176;2023-04-24T06:50:16;2.60;;;1.80;;
7029;SDS011;3556;53.500;10.176;2023-04-24T06:52:42;1.70;;;1.70;;
7029;SDS011;3556;53.500;10.176;2023-04-24T06:55:09;2.10;;;1.63;;
7029;SDS011;3556;53.500;10.176;2023-04-24T06:57:36;1.70;;;1.70;;
7029;SDS011;3556;53.500;10.176;2023-04-24T07:00:02;1.93;;;1.83;;
7029;SDS011;3556;53.500;10.176;2023-04-24T07:02:30;2.03;;;1.93;;
7029;SDS011;3556;53.500;10.176;2023-04-24T07:04:55;2.30;;;2.10;;
7029;SDS011;3556;53.500;10.176;2023-04-24T07:07:21;2.00;;;1.90;;
7029;SDS011;3556;53.500;10.176;2023-04-24T07:09:48;2.17;;;2.07;;
7029;SDS011;3556;53.500;10.176;2023-04-24T07:12:15;2.00;;;1.90;;
7029;SDS011;3556;53.500;10.176;2023-04-24T07:14:42;2.07;;;1.90;;
7029;SDS011;3556;53.500;10.176;2023-04-24T07:17:07;2.80;;;2.70;;
7029;SDS011;3556;53.500;10.176;2023-04-24T07:19:34;2.10;;;2.10;;
7029;SDS011;3556;53.500;10.176;2023-04-24T07:22:02;2.37;;;2.27;;
7029;SDS011;3556;53.500;10.176;2023-04-24T07:24:28;2.90;;;2.80;;
7029;SDS011;3556;53.500;10.176;2023-04-24T07:26:54;3.17;;;3.03;;
7029;SDS011;3556;53.500;10.176;2023-04-24T07:29:20;2.63;;;2.53;;
7029;SDS011;3556;53.500;10.176;2023-04-24T07:31:46;2.80;;;2.60;;
7029;SDS011;3556;53.500;10.176;2023-04-24T07:34:12;2.53;;;2.47;;
7029;SDS011;3556;53.500;10.176;2023-04-24T07:36:37;3.30;;;3.10;;
7029;SDS011;3556;53.500;10.176;2023-04-24T07:39:03;3.20;;;3.10;;
7029;SDS011;3556;53.500;10.176;2023-04-24T07:41:31;3.30;;;3.10;;
7029;SDS011;3556;53.500;10.176;2023-04-24T07:43:56;2.73;;;2.63;;
7029;SDS011;3556;53.500;10.176;2023-04-24T07:46:23;3.27;;;3.07;;
7029;SDS011;3556;53.500;10.176;2023-04-24T07:48:49;3.20;;;3.10;;
7029;SDS011;3556;53.500;10.176;2023-04-24T07:51:15;3.50;;;2.80;;
7029;SDS011;3556;53.500;10.176;2023-04-24T07:53:41;3.07;;;2.97;;
7029;SDS011;3556;53.500;10.176;2023-04-24T07:56:07;3.30;;;3.10;;
7029;SDS011;3556;53.500;10.176;2023-04-24T07:58:33;3.50;;;3.30;;
7029;SDS011;3556;53.500;10.176;2023-04-24T08:01:00;3.50;;;3.30;;
7029;SDS011;3556;53.500;10.176;2023-04-24T08:03:25;3.67;;;3.57;;
7029;SDS011;3556;53.500;10.176;2023-04-24T08:05:51;4.03;;;3.83;;
7029;SDS011;3556;53.500;10.176;2023-04-24T08:08:17;3.30;;;3.20;;
7029;SDS011;3556;53.500;10.176;2023-04-24T08:10:44;3.30;;;3.20;;
7029;SDS011;3556;53.500;10.176;2023-04-24T08:13:10;3.77;;;3.67;;
7029;SDS011;3556;53.500;10.176;2023-04-24T08:15:36;3.70;;;3.60;;
7029;SDS011;3556;53.500;10.176;2023-04-24T08:18:02;3.90;;;3.80;;
7029;SDS011;3556;53.500;10.176;2023-04-24T08:20:28;3.80;;;3.70;;
7029;SDS011;3556;53.500;10.176;2023-04-24T08:22:54;3.50;;;3.40;;
7029;SDS011;3556;53.500;10.176;2023-04-24T08:25:20;4.10;;;4.00;;
7029;SDS011;3556;53.500;10.176;2023-04-24T08:27:48;4.97;;;4.83;;
7029;SDS011;3556;53.500;10.176;2023-04-24T08:30:13;5.30;;;5.10;;
7029;SDS011;3556;53.500;10.176;2023-04-24T08:32:39;5.10;;;4.80;;
7029;SDS011;3556;53.500;10.176;2023-04-24T08:35:05;5.90;;;5.57;;
7029;SDS011;3556;53.500;10.176;2023-04-24T08:37:34;5.70;;;5.50;;
7029;SDS011;3556;53.500;10.176;2023-04-24T08:39:59;5.87;;;5.67;;
7029;SDS011;3556;53.500;10.176;2023-04-24T08:42:25;6.53;;;6.27;;
7029;SDS011;3556;53.500;10.176;2023-04-24T08:44:53;6.03;;;5.77;;
7029;SDS011;3556;53.500;10.176;2023-04-24T08:47:20;6.00;;;5.77;;
7029;SDS011;3556;53.500;10.176;2023-04-24T08:49:47;8.33;;;6.33;;
7029;SDS011;3556;53.500;10.176;2023-04-24T08:52:15;6.40;;;6.10;;
7029;SDS011;3556;53.500;10.176;2023-04-24T08:54:41;6.37;;;5.87;;
7029;SDS011;3556;53.500;10.176;2023-04-24T08:57:08;6.50;;;6.20;;
7029;SDS011;3556;53.500;10.176;2023-04-24T08:59:36;7.03;;;6.40;;
7029;SDS011;3556;53.500;10.176;2023-04-24T09:02:03;7.33;;;6.83;;
7029;SDS011;3556;53.500;10.176;2023-04-24T09:04:30;7.23;;;6.83;;
7029;SDS011;3556;53.500;10.176;2023-04-24T09:06:57;6.90;;;6.60;;
7029;SDS011;3556;53.500;10.176;2023-04-24T09:09:23;7.47;;;7.17;;
7029;SDS011;3556;53.500;10.176;2023-04-24T09:11:50;7.80;;;7.23;;
7029;SDS011;3556;53.500;10.176;2023-04-24T09:14:18;6.33;;;5.93;;
7029;SDS011;3556;53.500;10.176;2023-04-24T09:16:45;6.13;;;5.93;;
7029;SDS011;3556;53.500;10.176;2023-04-24T09:19:12;6.67;;;6.47;;
7029;SDS011;3556;53.500;10.176;2023-04-24T09:21:37;6.27;;;5.93;;
7029;SDS011;3556;53.500;10.176;2023-04-24T09:24:04;5.67;;;5.47;;
7029;SDS011;3556;53.500;10.176;2023-04-24T09:26:33;6.50;;;6.00;;
7029;SDS011;3556;53.500;10.176;2023-04-24T09:29:00;5.50;;;5.30;;
7029;SDS011;3556;53.500;10.176;2023-04-24T09:31:27;6.00;;;5.80;;
7029;SDS011;3556;53.500;10.176;2023-04-24T09:36:27;7.70;;;7.30;;
7029;SDS011;3556;53.500;10.176;2023-04-24T09:39:12;7.50;;;7.07;;
7029;SDS011;3556;53.500;10.176;2023-04-24T09:44:15;7.07;;;6.70;;
7029;SDS011;3556;53.500;10.176;2023-04-24T09:46:42;6.73;;;6.30;;
7029;SDS011;3556;53.500;10.176;2023-04-24T09:49:12;7.67;;;7.13;;
7029;SDS011;3556;53.500;10.176;2023-04-24T09:51:39;6.57;;;6.37;;
7029;SDS011;3556;53.500;10.176;2023-04-24T09:54:15;6.67;;;6.27;;
7029;SDS011;3556;53.500;10.176;2023-04-24T09:56:46;6.23;;;6.03;;
7029;SDS011;3556;53.500;10.176;2023-04-24T09:59:13;6.80;;;6.50;;
7029;SDS011;3556;53.500;10.176;2023-04-24T10:01:40;6.80;;;6.47;;
7029;SDS011;3556;53.500;10.176;2023-04-24T10:04:20;6.67;;;6.17;;
7029;SDS011;3556;53.500;10.176;2023-04-24T10:06:48;7.20;;;6.83;;
7029;SDS011;3556;53.500;10.176;2023-04-24T10:09:14;6.80;;;6.50;;
7029;SDS011;3556;53.500;10.176;2023-04-24T10:11:42;6.37;;;5.97;;
7029;SDS011;3556;53.500;10.176;2023-04-24T10:14:15;7.03;;;6.73;;
7029;SDS011;3556;53.500;10.176;2023-04-24T10:16:48;7.80;;;7.40;;
7029;SDS011;3556;53.500;10.176;2023-04-24T10:19:15;8.30;;;7.60;;
7029;SDS011;3556;53.500;10.176;2023-04-24T10:21:42;8.23;;;7.57;;
7029;SDS011;3556;53.500;10.176;2023-04-24T10:24:14;8.10;;;7.70;;
7029;SDS011;3556;53.500;10.176;2023-04-24T10:26:41;10.03;;;8.10;;
7029;SDS011;3556;53.500;10.176;2023-04-24T10:29:08;7.63;;;7.23;;
7029;SDS011;3556;53.500;10.176;2023-04-24T10:31:37;8.63;;;7.97;;
7029;SDS011;3556;53.500;10.176;2023-04-24T10:34:07;9.23;;;8.63;;
7029;SDS011;3556;53.500;10.176;2023-04-24T10:36:34;8.63;;;7.83;;
7029;SDS011;3556;53.500;10.176;2023-04-24T10:39:02;8.30;;;7.57;;
7029;SDS011;3556;53.500;10.176;2023-04-24T10:41:31;11.30;;;9.17;;
7029;SDS011;3556;53.500;10.176;2023-04-24T10:44:13;8.60;;;7.93;;
7029;SDS011;3556;53.500;10.176;2023-04-24T10:46:52;9.50;;;8.80;;
7029;SDS011;3556;53.500;10.176;2023-04-24T10:49:27;9.77;;;8.77;;
7029;SDS011;3556;53.500;10.176;2023-04-24T10:51:54;9.00;;;8.30;;
7029;SDS011;3556;53.500;10.176;2023-04-24T10:54:26;10.13;;;9.33;;
7029;SDS011;3556;53.500;10.176;2023-04-24T10:56:52;11.83;;;9.80;;
7029;SDS011;3556;53.500;10.176;2023-04-24T10:59:26;10.27;;;9.20;;
7029;SDS011;3556;53.500;10.176;2023-04-24T11:01:53;9.90;;;9.10;;
7029;SDS011;3556;53.500;10.176;2023-04-24T11:04:33;10.97;;;10.00;;
7029;SDS011;3556;53.500;10.176;2023-04-24T11:07:00;9.97;;;9.13;;
7029;SDS011;3556;53.500;10.176;2023-04-24T11:09:27;10.40;;;9.50;;
7029;SDS011;3556;53.500;10.176;2023-04-24T11:12:05;11.07;;;10.17;;
7029;SDS011;3556;53.500;10.176;2023-04-24T11:17:31;11.60;;;9.77;;
7029;SDS011;3556;53.500;10.176;2023-04-24T11:20:04;10.70;;;9.80;;
7029;SDS011;3556;53.500;10.176;2023-04-24T11:22:33;9.60;;;8.90;;
7029;SDS011;3556;53.500;10.176;2023-04-24T11:25:00;10.80;;;9.20;;
7029;SDS011;3556;53.500;10.176;2023-04-24T11:27:29;10.90;;;10.03;;
7029;SDS011;3556;53.500;10.176;2023-04-24T11:37:41;9.37;;;8.57;;
7029;SDS011;3556;53.500;10.176;2023-04-24T11:40:11;10.70;;;9.70;;
7029;SDS011;3556;53.500;10.176;2023-04-24T11:42:44;10.00;;;9.20;;
7029;SDS011;3556;53.500;10.176;2023-04-24T11:45:12;9.73;;;9.00;;
7029;SDS011;3556;53.500;10.176;2023-04-24T11:47:47;8.50;;;7.97;;
7029;SDS011;3556;53.500;10.176;2023-04-24T11:50:14;8.63;;;7.80;;
7029;SDS011;3556;53.500;10.176;2023-04-24T11:52:42;8.60;;;7.93;;
7029;SDS011;3556;53.500;10.176;2023-04-24T11:57:54;7.77;;;7.30;;
7029;SDS011;3556;53.500;10.176;2023-04-24T12:00:25;8.57;;;7.97;;
7029;SDS011;3556;53.500;10.176;2023-04-24T12:03:02;8.87;;;8.17;;
7029;SDS011;3556;53.500;10.176;2023-04-24T12:05:36;8.30;;;7.73;;
7029;SDS011;3556;53.500;10.176;2023-04-24T12:08:02;7.63;;;6.90;;
7029;SDS011;3556;53.500;10.176;2023-04-24T12:10:28;7.43;;;6.73;;
7029;SDS011;3556;53.500;10.176;2023-04-24T12:12:56;7.40;;;6.90;;
7029;SDS011;3556;53.500;10.176;2023-04-24T12:15:23;6.57;;;6.07;;
7029;SDS011;3556;53.500;10.176;2023-04-24T12:17:53;6.23;;;5.93;;
7029;SDS011;3556;53.500;10.176;2023-04-24T12:20:27;5.47;;;5.20;;
7029;SDS011;3556;53.500;10.176;2023-04-24T12:22:55;6.30;;;5.90;;
7029;SDS011;3556;53.500;10.176;2023-04-24T12:25:23;5.50;;;5.33;;
7029;SDS011;3556;53.500;10.176;2023-04-24T12:28:09;6.30;;;6.10;;
7029;SDS011;3556;53.500;10.176;2023-04-24T12:30:40;6.37;;;5.93;;
7029;SDS011;3556;53.500;10.176;2023-04-24T12:33:09;6.00;;;5.80;;
7029;SDS011;3556;53.500;10.176;2023-04-24T12:35:35;6.30;;;5.97;;
7029;SDS011;3556;53.500;10.176;2023-04-24T12:40:34;7.07;;;6.37;;
7029;SDS011;3556;53.500;10.176;2023-04-24T12:42:59;5.50;;;5.30;;
7029;SDS011;3556;53.500;10.176;2023-04-24T12:45:25;6.37;;;6.10;;
7029;SDS011;3556;53.500;10.176;2023-04-24T12:47:52;6.87;;;6.37;;
7029;SDS011;3556;53.500;10.176;2023-04-24T12:50:18;5.53;;;5.13;;
7029;SDS011;3556;53.500;10.176;2023-04-24T12:52:44;6.67;;;6.00;;
7029;SDS011;3556;53.500;10.176;2023-04-24T12:55:10;6.20;;;5.70;;
7029;SDS011;3556;53.500;10.176;2023-04-24T12:57:37;4.73;;;4.63;;
7029;SDS011;3556;53.500;10.176;2023-04-24T13:00:05;4.20;;;4.10;;
7029;SDS011;3556;53.500;10.176;2023-04-24T13:02:31;5.23;;;4.83;;
7029;SDS011;3556;53.500;10.176;2023-04-24T13:04:58;4.80;;;4.70;;
7029;SDS011;3556;53.500;10.176;2023-04-24T13:07:26;5.00;;;4.80;;
7029;SDS011;3556;53.500;10.176;2023-04-24T13:09:52;5.13;;;4.93;;
7029;SDS011;3556;53.500;10.176;2023-04-24T13:12:19;4.73;;;4.63;;
7029;SDS011;3556;53.500;10.176;2023-04-24T13:14:45;4.63;;;4.37;;
7029;SDS011;3556;53.500;10.176;2023-04-24T13:17:11;5.17;;;4.97;;
7029;SDS011;3556;53.500;10.176;2023-04-24T13:19:38;4.60;;;4.40;;
7029;SDS011;3556;53.500;10.176;2023-04-24T13:22:06;5.53;;;4.93;;
7029;SDS011;3556;53.500;10.176;2023-04-24T13:24:32;4.67;;;4.57;;
7029;SDS011;3556;53.500;10.176;2023-04-24T13:26:58;4.60;;;4.50;;
7029;SDS011;3556;53.500;10.176;2023-04-24T13:29:25;4.23;;;4.03;;
7029;SDS011;3556;53.500;10.176;2023-04-24T13:31:51;6.40;;;5.17;;
7029;SDS011;3556;53.500;10.176;2023-04-24T13:34:19;5.27;;;4.97;;
7029;SDS011;3556;53.500;10.176;2023-04-24T13:36:44;5.43;;;5.23;;
7029;SDS011;3556;53.500;10.176;2023-04-24T13:39:10;5.40;;;5.20;;
7029;SDS011;3556;53.500;10.176;2023-04-24T13:41:36;5.20;;;5.10;;
7029;SDS011;3556;53.500;10.176;2023-04-24T13:44:02;6.23;;;5.70;;
7029;SDS011;3556;53.500;10.176;2023-04-24T13:46:29;8.40;;;5.37;;
7029;SDS011;3556;53.500;10.176;2023-04-24T13:48:55;5.53;;;5.23;;
7029;SDS011;3556;53.500;10.176;2023-04-24T13:51:21;5.27;;;4.80;;
7029;SDS011;3556;53.500;10.176;2023-04-24T13:53:48;4.90;;;4.80;;
7029;SDS011;3556;53.500;10.176;2023-04-24T13:56:13;4.35;;;4.25;;
7029;SDS011;3556;53.500;10.176;2023-04-24T13:58:39;4.13;;;3.93;;
7029;SDS011;3556;53.500;10.176;2023-04-24T14:01:05;4.73;;;4.30;;
7029;SDS011;3556;53.500;10.176;2023-04-24T14:03:31;4.77;;;4.57;;
7029;SDS011;3556;53.500;10.176;2023-04-24T14:05:57;4.60;;;4.50;;
7029;SDS011;3556;53.500;10.176;2023-04-24T14:08:23;4.37;;;4.13;;
7029;SDS011;3556;53.500;10.176;2023-04-24T14:10:50;4.33;;;4.13;;
7029;SDS011;3556;53.500;10.176;2023-04-24T14:13:15;4.30;;;4.20;;
7029;SDS011;3556;53.500;10.176;2023-04-24T14:15:41;4.70;;;4.50;;
7029;SDS011;3556;53.500;10.176;2023-04-24T14:18:07;4.73;;;4.60;;
7029;SDS011;3556;53.500;10.176;2023-04-24T14:20:33;4.20;;;4.10;;
7029;SDS011;3556;53.500;10.176;2023-04-24T14:22:58;5.13;;;4.93;;
7029;SDS011;3556;53.500;10.176;2023-04-24T14:25:24;5.20;;;4.97;;
7029;SDS011;3556;53.500;10.176;2023-04-24T14:27:50;5.27;;;5.07;;
7029;SDS011;3556;53.500;10.176;2023-04-24T14:30:16;4.80;;;4.70;;
7029;SDS011;3556;53.500;10.176;2023-04-24T14:32:42;4.67;;;4.47;;
7029;SDS011;3556;53.500;10.176;2023-04-24T14:35:07;5.97;;;5.57;;
7029;SDS011;3556;53.500;10.176;2023-04-24T14:37:33;5.10;;;5.00;;
7029;SDS011;3556;53.500;10.176;2023-04-24T14:39:59;5.07;;;4.57;;
7029;SDS011;3556;53.500;10.176;2023-04-24T14:42:25;4.90;;;4.60;;
7029;SDS011;3556;53.500;10.176;2023-04-24T14:44:50;5.90;;;5.67;;
7029;SDS011;3556;53.500;10.176;2023-04-24T14:47:16;4.50;;;4.40;;
7029;SDS011;3556;53.500;10.176;2023-04-24T14:49:46;4.57;;;4.37;;
7029;SDS011;3556;53.500;10.176;2023-04-24T14:52:15;11.97;;;6.20;;
7029;SDS011;3556;53.500;10.176;2023-04-24T14:54:41;17.07;;;12.97;;
7029;SDS011;3556;53.500;10.176;2023-04-24T14:57:07;5.03;;;4.83;;
7029;SDS011;3556;53.500;10.176;2023-04-24T14:59:33;4.80;;;4.50;;
7029;SDS011;3556;53.500;10.176;2023-04-24T15:01:58;3.83;;;3.73;;
7029;SDS011;3556;53.500;10.176;2023-04-24T15:04:24;3.73;;;3.63;;
7029;SDS011;3556;53.500;10.176;2023-04-24T15:06:50;3.30;;;3.20;;
7029;SDS011;3556;53.500;10.176;2023-04-24T15:09:17;3.23;;;3.13;;
7029;SDS011;3556;53.500;10.176;2023-04-24T15:11:43;3.43;;;3.33;;
7029;SDS011;3556;53.500;10.176;2023-04-24T15:14:08;4.10;;;4.00;;
7029;SDS011;3556;53.500;10.176;2023-04-24T15:16:34;4.03;;;3.90;;
7029;SDS011;3556;53.500;10.176;2023-04-24T15:19:00;4.63;;;4.43;;